Time;durP1;ratioP1;P1;durP2;ratioP2;P2;SDS_P1;SDS_P2;PMS_P1;PMS_P2;Temp;Humidity;BMP_temperature;BMP_pressure;BME280_temperature;BME280_humidity;BME280_pressure;Samples;Min_cycle;Max_cycle;Signal;HPM_P1;HPM_P2
2023/01/21 00:02:12;;;;;;;51.13;22.80;;;-1.00;99.90;;;;;;4936075;29;20501;-73
2023/01/21 00:04:37;;;;;;;40.53;16.30;;;-1.00;99.90;;;;;;4935273;29;20207;-72
2023/01/21 00:07:04;;;;;;;45.67;19.80;;;-1.00;99.90;;;;;;4934701;29;20206;-72
2023/01/21 00:09:29;;;;;;;38.90;15.87;;;-1.00;99.90;;;;;;4934775;29;20624;-72
2023/01/21 00:11:56;;;;;;;40.73;13.83;;;-1.00;99.90;;;;;;4934379;29;20428;-72
2023/01/21 00:14:21;;;;;;;38.27;13.00;;;-1.00;99.90;;;;;;4933910;29;20203;-73
2023/01/21 00:16:47;;;;;;;47.20;14.43;;;-1.00;99.90;;;;;;4933782;29;20436;-72
2023/01/21 00:19:12;;;;;;;36.47;11.03;;;-1.00;99.90;;;;;;4935349;29;20619;-73
2023/01/21 00:21:38;;;;;;;30.87;10.77;;;-1.00;99.90;;;;;;4942849;29;20217;-73
2023/01/21 00:24:03;;;;;;;33.80;9.30;;;-1.00;99.90;;;;;;4953306;28;20199;-73
2023/01/21 00:26:29;;;;;;;35.63;9.40;;;-1.00;99.90;;;;;;4953281;28;20200;-73
2023/01/21 00:28:54;;;;;;;28.27;9.80;;;-1.00;99.90;;;;;;4952640;28;20305;-73
2023/01/21 00:31:20;;;;;;;30.90;10.50;;;-1.00;99.90;;;;;;4947641;28;20221;-71
2023/01/21 00:33:47;;;;;;;33.47;10.60;;;-1.10;99.90;;;;;;4941408;29;20203;-73
2023/01/21 00:36:13;;;;;;;27.90;8.80;;;-1.10;99.90;;;;;;4934462;29;20245;-73
2023/01/21 00:38:40;;;;;;;34.70;10.33;;;-1.10;99.90;;;;;;4941976;29;20448;-72
2023/01/21 00:41:08;;;;;;;32.57;10.73;;;-1.00;99.90;;;;;;4951474;29;21121;-72
2023/01/21 00:43:34;;;;;;;29.70;10.20;;;-0.90;99.90;;;;;;4952740;28;20200;-72
2023/01/21 00:46:00;;;;;;;38.10;11.20;;;-0.80;99.90;;;;;;4952096;28;20443;-72
2023/01/21 00:48:27;;;;;;;34.53;12.30;;;-0.80;99.90;;;;;;4952819;28;20442;-70
2023/01/21 00:50:54;;;;;;;34.90;10.70;;;-0.80;99.90;;;;;;4951890;28;20509;-72
2023/01/21 00:53:23;;;;;;;43.70;11.87;;;-0.80;99.90;;;;;;4952537;28;20520;-72
2023/01/21 00:55:49;;;;;;;34.20;11.20;;;-0.80;99.90;;;;;;4952144;28;20517;-73
2023/01/21 00:58:14;;;;;;;34.80;10.10;;;-0.70;99.90;;;;;;4952267;28;20543;-72
2023/01/21 01:00:40;;;;;;;29.87;10.13;;;-0.80;99.90;;;;;;4951872;28;20217;-71
2023/01/21 01:03:05;;;;;;;29.53;11.03;;;-0.80;99.90;;;;;;4950822;28;20204;-73
2023/01/21 01:05:31;;;;;;;32.07;11.70;;;-0.80;99.90;;;;;;4933786;29;20280;-72
2023/01/21 01:07:57;;;;;;;34.17;12.10;;;-0.70;99.90;;;;;;4951797;29;20204;-73
2023/01/21 01:10:22;;;;;;;31.20;10.27;;;-0.70;99.90;;;;;;4952420;28;20530;-72
2023/01/21 01:12:48;;;;;;;35.93;10.87;;;-0.80;99.90;;;;;;4950338;29;20241;-72
2023/01/21 01:15:13;;;;;;;34.07;10.87;;;-0.80;99.90;;;;;;4952396;28;20207;-72
2023/01/21 01:17:39;;;;;;;37.70;11.20;;;-0.80;99.90;;;;;;4952098;28;20291;-72
2023/01/21 01:20:05;;;;;;;33.00;9.90;;;-0.80;99.90;;;;;;4952391;28;20701;-72
2023/01/21 01:22:31;;;;;;;33.10;9.83;;;-0.90;99.90;;;;;;4952174;28;20238;-73
2023/01/21 01:24:56;;;;;;;31.97;10.47;;;-0.90;99.90;;;;;;4951631;28;20442;-72
2023/01/21 01:27:22;;;;;;;31.70;9.90;;;-0.90;99.90;;;;;;4952447;28;20196;-73
2023/01/21 01:29:48;;;;;;;34.73;10.57;;;-0.90;99.90;;;;;;4951863;28;20217;-71
2023/01/21 01:32:13;;;;;;;34.53;10.10;;;-0.90;99.90;;;;;;4952037;28;20643;-72
2023/01/21 01:34:39;;;;;;;35.80;11.27;;;-0.90;99.90;;;;;;4951653;28;20445;-71
2023/01/21 01:37:04;;;;;;;31.50;10.50;;;-0.90;99.90;;;;;;4952245;28;20445;-73
2023/01/21 01:39:30;;;;;;;32.80;10.17;;;-0.90;99.90;;;;;;4952354;28;20291;-72
2023/01/21 01:41:56;;;;;;;31.60;11.10;;;-0.90;99.90;;;;;;4951466;28;20202;-73
2023/01/21 01:44:57;;;;;;;33.40;10.40;;;-0.90;99.90;;;;;;4938942;28;20214;-73
2023/01/21 01:47:36;;;;;;;33.50;10.97;;;-1.00;99.90;;;;;;4932002;29;20204;-74
2023/01/21 01:50:03;;;;;;;34.03;11.13;;;-1.10;99.90;;;;;;4932826;29;21192;-74
2023/01/21 01:52:29;;;;;;;35.90;10.17;;;-1.10;99.90;;;;;;4939352;29;20856;-74
2023/01/21 01:54:57;;;;;;;36.80;11.97;;;-1.10;99.90;;;;;;4951797;28;20513;-73
2023/01/21 01:57:28;;;;;;;30.40;10.90;;;-1.10;99.90;;;;;;4952183;28;20434;-73
2023/01/21 01:59:54;;;;;;;32.53;10.00;;;-1.20;99.90;;;;;;4948614;29;20443;-73
2023/01/21 03:30:21;;;;;;;31.07;7.40;;;-3.10;99.90;;;;;;6065756;23;20385;31
2023/01/21 03:32:49;;;;;;;32.83;8.80;;;-3.10;99.90;;;;;;4962137;28;20587;-73
2023/01/21 03:35:46;;;;;;;29.57;7.60;;;-3.20;99.90;;;;;;4971163;28;20192;-73
2023/01/21 03:38:25;;;;;;;32.70;8.40;;;-3.30;99.90;;;;;;4968956;28;20443;-73
2023/01/21 03:41:06;;;;;;;34.23;8.50;;;-3.30;99.90;;;;;;4972981;28;20530;-75
2023/01/21 03:43:32;;;;;;;34.80;8.20;;;-3.40;99.90;;;;;;4972850;28;20849;-74
2023/01/21 03:46:23;;;;;;;30.20;8.00;;;-3.40;99.90;;;;;;4972898;28;20478;-74
2023/01/21 03:48:52;;;;;;;31.17;8.63;;;-3.40;99.90;;;;;;4973090;28;20234;-74
2023/01/21 03:51:22;;;;;;;33.33;7.70;;;-3.40;99.90;;;;;;4972934;28;20463;-74
2023/01/21 03:53:55;;;;;;;36.30;9.00;;;-3.50;99.90;;;;;;4972697;28;20928;-74
2023/01/21 03:56:20;;;;;;;33.53;6.97;;;-3.50;99.90;;;;;;4973148;28;20435;-75
2023/01/21 03:58:46;;;;;;;36.30;8.27;;;-3.60;99.90;;;;;;4972805;28;21003;-74
2023/01/21 04:01:11;;;;;;;28.77;6.43;;;-3.60;99.90;;;;;;4972169;28;20211;-74
2023/01/21 04:03:37;;;;;;;31.70;7.33;;;-3.70;99.90;;;;;;4972399;28;20192;-74
2023/01/21 04:06:02;;;;;;;33.67;7.30;;;-3.70;99.90;;;;;;4972172;28;20222;-74
2023/01/21 04:08:28;;;;;;;35.37;8.37;;;-3.70;99.90;;;;;;4972730;28;20552;-74
2023/01/21 04:10:54;;;;;;;38.80;8.13;;;-3.80;99.90;;;;;;4972240;28;20215;-74
2023/01/21 04:13:19;;;;;;;30.17;7.90;;;-3.80;99.90;;;;;;4972505;28;20409;-74
2023/01/21 04:15:45;;;;;;;32.83;7.60;;;-3.90;99.90;;;;;;4972551;28;20226;-74
2023/01/21 04:18:10;;;;;;;36.37;8.00;;;-3.90;99.90;;;;;;4972410;28;20295;-74
2023/01/21 04:20:36;;;;;;;32.73;8.70;;;-3.90;99.90;;;;;;4972652;28;20188;-74
2023/01/21 04:23:02;;;;;;;33.83;7.67;;;-4.00;99.90;;;;;;4972069;28;20286;-73
2023/01/21 04:25:27;;;;;;;36.43;8.10;;;-4.00;99.90;;;;;;4972586;28;20530;-73
2023/01/21 04:27:53;;;;;;;41.43;8.00;;;-4.00;99.90;;;;;;4972423;28;20195;-73
2023/01/21 04:30:18;;;;;;;38.80;8.47;;;-4.10;99.90;;;;;;4972278;28;20262;-72
2023/01/21 04:32:45;;;;;;;35.60;7.63;;;-4.10;99.90;;;;;;4972132;28;20323;-74
2023/01/21 04:35:10;;;;;;;36.20;8.17;;;-4.10;99.90;;;;;;4971501;28;20323;-74
2023/01/21 04:37:36;;;;;;;35.40;8.63;;;-4.20;99.90;;;;;;4972466;28;20522;-73
2023/01/21 04:40:02;;;;;;;34.73;8.07;;;-4.20;99.90;;;;;;4972011;28;20199;-73
2023/01/21 04:42:27;;;;;;;33.63;8.40;;;-4.20;99.90;;;;;;4972013;28;20208;-74
2023/01/21 04:44:53;;;;;;;37.33;8.13;;;-4.20;99.90;;;;;;4972142;28;20778;-73
2023/01/21 04:47:18;;;;;;;34.13;8.63;;;-4.20;99.90;;;;;;4972263;28;20279;-74
2023/01/21 04:49:44;;;;;;;41.03;8.70;;;-4.20;99.90;;;;;;4972268;28;20211;-73
2023/01/21 04:52:09;;;;;;;34.80;7.50;;;-4.20;99.90;;;;;;4971613;28;22772;-72
2023/01/21 04:54:35;;;;;;;41.10;8.40;;;-4.20;99.90;;;;;;4972305;28;20184;-73
2023/01/21 04:57:00;;;;;;;40.90;7.83;;;-4.30;99.90;;;;;;4971896;28;20299;-73
2023/01/21 04:59:26;;;;;;;36.50;7.50;;;-4.40;99.90;;;;;;4971138;28;20207;-73
2023/01/21 05:01:51;;;;;;;35.60;8.10;;;-4.40;99.90;;;;;;4971430;28;20222;-73
2023/01/21 05:04:16;;;;;;;38.20;8.17;;;-4.40;99.90;;;;;;4963939;28;20187;-73
2023/01/21 05:06:42;;;;;;;36.43;8.00;;;-4.40;99.90;;;;;;4971975;28;20204;-73
2023/01/21 05:09:07;;;;;;;36.17;7.60;;;-4.40;99.90;;;;;;4972195;28;20227;-73
2023/01/21 05:11:33;;;;;;;32.73;7.10;;;-4.40;99.90;;;;;;4972410;28;20707;-74
2023/01/21 05:13:58;;;;;;;32.90;7.77;;;-4.40;99.90;;;;;;4971583;28;20188;-74
2023/01/21 05:16:24;;;;;;;30.90;7.03;;;-4.40;99.90;;;;;;4971977;28;20184;-74
2023/01/21 05:18:49;;;;;;;33.37;6.47;;;-4.50;99.90;;;;;;4971930;28;20222;-73
2023/01/21 05:21:15;;;;;;;32.60;7.90;;;-4.50;99.90;;;;;;4971543;28;20311;-73
2023/01/21 05:23:40;;;;;;;33.23;8.10;;;-4.50;99.90;;;;;;4971847;28;20192;-73
2023/01/21 05:26:06;;;;;;;34.43;7.30;;;-4.50;99.90;;;;;;4971557;28;20684;-74
2023/01/21 05:28:31;;;;;;;34.50;7.10;;;-4.50;99.90;;;;;;4971558;28;20271;-74
2023/01/21 05:31:00;;;;;;;34.20;5.90;;;-4.60;99.90;;;;;;4971159;28;20571;-73
2023/01/21 05:33:34;;;;;;;31.27;6.43;;;-4.60;99.90;;;;;;4971724;28;20250;-73
2023/01/21 05:36:00;;;;;;;35.67;8.17;;;-4.60;99.90;;;;;;4971253;28;20431;-74
2023/01/21 05:38:26;;;;;;;34.00;6.93;;;-4.60;99.90;;;;;;4971886;28;20458;-74
2023/01/21 05:40:57;;;;;;;30.87;5.93;;;-4.60;99.90;;;;;;4971504;28;20443;-74
2023/01/21 05:43:22;;;;;;;34.70;7.10;;;-4.60;99.90;;;;;;4964047;28;20907;-74
2023/01/21 05:45:48;;;;;;;32.67;6.70;;;-4.70;99.90;;;;;;4973493;28;20426;-73
2023/01/21 05:48:13;;;;;;;33.30;7.00;;;-4.70;99.90;;;;;;4975361;28;20204;-73
2023/01/21 05:50:39;;;;;;;33.10;6.23;;;-4.70;99.90;;;;;;4975189;28;20234;-74
2023/01/21 05:53:04;;;;;;;34.13;5.77;;;-4.70;99.90;;;;;;4974926;28;20188;-73
2023/01/21 05:55:30;;;;;;;28.80;5.60;;;-4.70;99.90;;;;;;4975379;28;20189;-72
2023/01/21 05:57:55;;;;;;;47.40;6.93;;;-4.60;99.90;;;;;;4974940;28;20188;-73
2023/01/21 06:00:21;;;;;;;33.80;5.70;;;-4.60;99.90;;;;;;4975143;28;20211;-74
2023/01/21 06:02:47;;;;;;;33.30;6.30;;;-4.60;99.90;;;;;;4974844;28;20427;-73
2023/01/21 06:05:12;;;;;;;36.50;7.50;;;-4.60;99.90;;;;;;4974859;28;20692;-73
2023/01/21 06:07:38;;;;;;;39.13;7.23;;;-4.50;99.90;;;;;;4975155;28;20184;-74
2023/01/21 06:10:04;;;;;;;38.20;7.73;;;-4.50;99.90;;;;;;4973421;28;20239;-74
2023/01/21 06:12:29;;;;;;;42.13;7.63;;;-4.50;99.90;;;;;;4974780;28;20211;-72
2023/01/21 06:14:55;;;;;;;41.40;7.77;;;-4.40;99.90;;;;;;4974731;28;20452;-71
2023/01/21 06:17:20;;;;;;;37.27;7.77;;;-4.30;99.90;;;;;;4975003;28;20184;-73
2023/01/21 06:19:46;;;;;;;38.23;7.87;;;-4.30;99.90;;;;;;4974508;28;20187;-72
2023/01/21 06:22:15;;;;;;;45.07;9.30;;;-4.20;99.90;;;;;;4973910;28;20778;-71
2023/01/21 06:24:41;;;;;;;46.70;9.70;;;-4.20;99.90;;;;;;4974861;28;20184;-73
2023/01/21 06:27:06;;;;;;;43.80;9.63;;;-4.10;99.90;;;;;;4973016;28;20431;-74
2023/01/21 06:29:32;;;;;;;41.13;9.53;;;-4.10;99.90;;;;;;4974337;28;20208;-73
2023/01/21 06:31:57;;;;;;;45.33;11.20;;;-4.10;99.90;;;;;;4973492;28;20219;-72
2023/01/21 06:34:23;;;;;;;49.97;12.03;;;-4.00;99.90;;;;;;4974478;28;20195;-73
2023/01/21 06:36:48;;;;;;;51.47;14.87;;;-3.90;99.90;;;;;;4974436;28;20184;-72
2023/01/21 06:39:14;;;;;;;55.27;17.40;;;-3.80;99.90;;;;;;4974343;28;20196;-72
2023/01/21 06:41:39;;;;;;;57.53;17.80;;;-3.70;99.90;;;;;;4974305;28;20243;-71
2023/01/21 06:44:05;;;;;;;61.70;18.53;;;-3.60;99.90;;;;;;4974120;28;20199;-72
2023/01/21 06:46:30;;;;;;;68.63;19.93;;;-3.50;99.90;;;;;;4974456;28;20180;-72
2023/01/21 06:48:56;;;;;;;81.00;21.67;;;-3.40;99.90;;;;;;4974210;28;20187;-71
2023/01/21 06:51:22;;;;;;;68.70;21.53;;;-3.40;99.90;;;;;;4974446;28;20211;-72
2023/01/21 06:53:47;;;;;;;67.27;21.67;;;-3.30;99.90;;;;;;4973981;28;20187;-73
2023/01/21 06:56:13;;;;;;;67.23;21.47;;;-3.20;99.90;;;;;;4973308;28;20247;-72
2023/01/21 06:58:38;;;;;;;63.50;19.67;;;-3.20;99.90;;;;;;4973672;28;20199;-73
2023/01/21 07:01:04;;;;;;;69.60;22.57;;;-3.10;99.90;;;;;;4973546;28;20211;-72
2023/01/21 07:03:29;;;;;;;64.40;20.97;;;-3.10;99.90;;;;;;4973879;28;20176;-72
2023/01/21 07:05:55;;;;;;;64.53;21.50;;;-3.10;99.90;;;;;;4973872;28;20184;-72
2023/01/21 07:08:20;;;;;;;75.03;22.67;;;-3.10;99.90;;;;;;4973584;28;20196;-73
2023/01/21 07:10:46;;;;;;;70.30;21.13;;;-3.10;99.90;;;;;;4973615;28;20227;-72
2023/01/21 07:13:11;;;;;;;78.33;22.77;;;-3.00;99.90;;;;;;4973262;28;20672;-72
2023/01/21 07:15:37;;;;;;;79.53;21.60;;;-3.00;99.90;;;;;;4973797;28;20195;-73
2023/01/21 07:18:02;;;;;;;65.07;21.10;;;-3.00;99.90;;;;;;4973450;28;20191;-72
2023/01/21 07:20:28;;;;;;;63.07;20.87;;;-2.90;99.90;;;;;;4973580;28;20265;-72
2023/01/21 07:22:53;;;;;;;62.50;21.10;;;-2.90;99.90;;;;;;4972905;28;20564;-72
2023/01/21 07:25:19;;;;;;;67.67;23.30;;;-2.80;99.90;;;;;;4973036;28;20315;-73
2023/01/21 07:27:44;;;;;;;68.00;23.63;;;-2.80;99.90;;;;;;4973475;28;20188;-74
2023/01/21 07:30:18;;;;;;;65.10;20.30;;;-2.80;99.90;;;;;;4973533;28;20720;-72
2023/01/21 07:32:45;;;;;;;65.10;21.93;;;-2.80;99.90;;;;;;4970447;28;20571;-72
2023/01/21 07:35:10;;;;;;;62.73;22.47;;;-2.70;99.90;;;;;;4972851;28;20865;-73
2023/01/21 07:37:36;;;;;;;67.57;21.13;;;-2.70;99.90;;;;;;4973004;28;20520;-72
2023/01/21 07:40:02;;;;;;;61.37;19.77;;;-2.60;99.90;;;;;;4984873;28;20560;-72
2023/01/21 07:42:27;;;;;;;62.73;21.73;;;-2.60;99.90;;;;;;4972537;28;20205;-73
2023/01/21 07:44:53;;;;;;;70.97;22.07;;;-2.50;99.90;;;;;;4972690;28;20195;-72
2023/01/21 07:47:19;;;;;;;67.50;21.77;;;-2.50;99.90;;;;;;4969476;28;20298;-73
2023/01/21 07:49:44;;;;;;;70.47;20.43;;;-2.50;99.90;;;;;;4966567;28;20225;-72
2023/01/21 07:52:09;;;;;;;53.90;19.10;;;-2.40;99.90;;;;;;4986826;28;20266;-71
2023/01/21 07:54:35;;;;;;;57.87;20.33;;;-2.30;99.90;;;;;;4972567;28;20265;-73
2023/01/21 07:57:00;;;;;;;59.57;19.57;;;-2.40;99.90;;;;;;4971067;28;20566;-72
2023/01/21 07:59:26;;;;;;;61.90;20.77;;;-2.30;99.90;;;;;;4972990;28;20568;-73
2023/01/21 08:01:52;;;;;;;60.50;19.47;;;-2.30;99.90;;;;;;4972556;28;20681;-73
2023/01/21 08:04:17;;;;;;;56.40;19.63;;;-2.30;99.90;;;;;;4972608;28;20188;-73
2023/01/21 08:06:43;;;;;;;58.53;19.10;;;-2.30;99.90;;;;;;4972786;28;20188;-73
2023/01/21 08:09:09;;;;;;;61.93;19.10;;;-2.30;99.90;;;;;;4971930;28;20195;-74
2023/01/21 08:11:35;;;;;;;60.90;19.77;;;-2.30;99.90;;;;;;4972317;28;20213;-73
2023/01/21 08:14:00;;;;;;;57.37;20.57;;;-2.20;99.90;;;;;;4972398;28;20408;-73
2023/01/21 08:16:26;;;;;;;59.80;20.10;;;-2.20;99.90;;;;;;4972443;28;20207;-73
2023/01/21 08:18:51;;;;;;;64.20;19.90;;;-2.20;99.90;;;;;;4972633;28;20204;-72
2023/01/21 08:21:19;;;;;;;53.07;17.50;;;-2.20;99.90;;;;;;4972165;28;20244;-73
2023/01/21 08:23:45;;;;;;;52.40;18.37;;;-2.10;99.90;;;;;;4972377;28;20437;-74
2023/01/21 08:26:11;;;;;;;56.83;20.10;;;-2.10;99.90;;;;;;4972200;28;20414;-73
2023/01/21 08:28:36;;;;;;;54.23;18.73;;;-2.10;99.90;;;;;;4971383;28;20976;-72
2023/01/21 08:31:08;;;;;;;60.67;19.77;;;-2.00;99.90;;;;;;4971932;28;20243;-73
2023/01/21 08:33:34;;;;;;;57.93;20.50;;;-1.90;99.90;;;;;;4970148;28;20196;-71
2023/01/21 08:36:01;;;;;;;53.30;17.93;;;-1.90;99.90;;;;;;4971796;28;20425;-72
2023/01/21 08:38:27;;;;;;;56.00;19.50;;;-1.90;99.90;;;;;;4972538;28;20423;-71
2023/01/21 08:40:53;;;;;;;59.40;20.30;;;-1.90;99.90;;;;;;4972242;28;20451;-73
2023/01/21 08:43:18;;;;;;;57.17;18.80;;;-1.90;99.90;;;;;;4971712;28;20719;-72
2023/01/21 08:45:44;;;;;;;60.87;19.50;;;-1.80;99.90;;;;;;4970049;28;20212;-71
2023/01/21 08:48:09;;;;;;;60.23;19.57;;;-1.80;99.90;;;;;;4986803;28;20192;-71
2023/01/21 08:50:35;;;;;;;58.60;19.10;;;-1.80;99.90;;;;;;4971346;28;20244;-71
2023/01/21 08:53:00;;;;;;;58.33;19.97;;;-1.70;99.90;;;;;;4971037;28;20279;-71
2023/01/21 08:55:26;;;;;;;54.67;19.80;;;-1.60;99.90;;;;;;4971992;28;20191;-71
2023/01/21 08:57:53;;;;;;;59.53;20.27;;;-1.50;99.90;;;;;;4971811;28;20263;-71
2023/01/21 09:00:19;;;;;;;51.20;17.33;;;-1.60;99.90;;;;;;4971195;28;20249;-71
2023/01/21 09:02:45;;;;;;;51.93;19.13;;;-1.50;99.90;;;;;;4971492;28;20455;-71
2023/01/21 09:05:11;;;;;;;58.90;20.03;;;-1.40;99.90;;;;;;4967173;28;20451;-70
2023/01/21 09:07:36;;;;;;;51.33;16.50;;;-1.30;99.90;;;;;;4971742;28;20566;-70
2023/01/21 09:10:03;;;;;;;49.13;18.13;;;-1.30;99.90;;;;;;4968549;28;20717;-71
2023/01/21 09:12:28;;;;;;;59.63;21.07;;;-1.20;99.90;;;;;;4970033;28;20208;-70
2023/01/21 09:14:54;;;;;;;55.70;18.10;;;-1.10;99.90;;;;;;4971215;28;20431;-70
2023/01/21 09:17:21;;;;;;;56.43;19.93;;;-1.10;99.90;;;;;;4971434;28;20197;-71
2023/01/21 09:19:47;;;;;;;60.33;19.77;;;-1.10;99.90;;;;;;4969843;28;20229;-72
2023/01/21 09:22:12;;;;;;;62.47;20.10;;;-1.10;99.90;;;;;;4975243;28;20492;-69
2023/01/21 09:24:38;;;;;;;55.20;19.27;;;-1.10;99.90;;;;;;4976119;28;20190;-72
2023/01/21 09:27:05;;;;;;;60.93;18.60;;;-1.10;99.90;;;;;;4977038;28;20697;-71
2023/01/21 09:29:31;;;;;;;56.73;19.57;;;-1.00;99.90;;;;;;4976812;28;20217;-70
2023/01/21 09:31:56;;;;;;;58.13;21.27;;;-1.00;99.90;;;;;;4975635;28;20462;-71
2023/01/21 09:34:22;;;;;;;55.80;18.20;;;-0.90;99.90;;;;;;4973479;28;20203;-72
2023/01/21 09:36:47;;;;;;;48.80;17.87;;;-0.80;99.90;;;;;;4975115;28;20599;-72
2023/01/21 09:39:13;;;;;;;52.93;17.77;;;-0.80;99.90;;;;;;4976330;28;20211;-71
2023/01/21 09:41:39;;;;;;;49.57;17.40;;;-0.80;99.90;;;;;;4976097;28;20281;-70
2023/01/21 09:44:23;;;;;;;59.50;19.87;;;-0.70;99.90;;;;;;4975576;28;20189;-70
2023/01/21 09:47:07;;;;;;;52.13;17.97;;;-0.70;99.90;;;;;;4969819;28;20946;-71
2023/01/21 09:49:33;;;;;;;51.10;18.40;;;-0.70;99.90;;;;;;4975454;28;20473;-72
2023/01/21 09:52:34;;;;;;;63.33;19.33;;;-0.60;99.90;;;;;;4973552;28;20484;-71
2023/01/21 09:55:00;;;;;;;60.83;17.10;;;-0.60;99.90;;;;;;4970849;28;20701;-71
2023/01/21 09:58:03;;;;;;;54.13;16.03;;;-0.60;99.90;;;;;;4974781;28;20428;-71
2023/01/21 10:00:31;;;;;;;48.13;17.37;;;-0.60;99.90;;;;;;4965766;28;20541;-71
2023/01/21 10:03:11;;;;;;;50.50;16.70;;;-0.60;99.90;;;;;;4969434;28;20465;-71
2023/01/21 10:05:52;;;;;;;55.70;17.97;;;-0.50;99.90;;;;;;4974797;28;20414;-71
2023/01/21 10:08:32;;;;;;;52.27;18.30;;;-0.50;99.90;;;;;;4974461;28;20442;-71
2023/01/21 10:11:07;;;;;;;53.53;15.43;;;-0.40;99.90;;;;;;4974319;28;20483;-69
2023/01/21 10:13:35;;;;;;;51.20;13.97;;;-0.50;99.90;;;;;;4974419;28;20494;-71
2023/01/21 10:16:24;;;;;;;48.37;15.50;;;-0.40;99.90;;;;;;4973429;28;20435;-71
2023/01/21 10:18:52;;;;;;;47.73;14.33;;;-0.40;99.90;;;;;;4972742;28;20436;-75
2023/01/21 10:21:32;;;;;;;55.73;14.07;;;-0.30;99.90;;;;;;4971575;28;20463;-76
2023/01/21 10:24:18;;;;;;;48.40;14.37;;;-0.20;99.90;;;;;;4974311;28;20498;-72
2023/01/21 10:26:46;;;;;;;47.47;13.47;;;-0.20;99.90;;;;;;4969721;28;20476;-71
2023/01/21 10:29:16;;;;;;;42.80;13.60;;;-0.10;99.90;;;;;;4974464;28;20442;-71
2023/01/21 10:31:54;;;;;;;50.10;14.60;;;-0.10;99.90;;;;;;4973543;28;20510;-71
2023/01/21 10:34:19;;;;;;;48.00;14.87;;;-0.10;99.90;;;;;;4973954;28;20878;-72
2023/01/21 10:37:17;;;;;;;51.70;15.13;;;0.00;99.90;;;;;;4973446;28;20457;-73
2023/01/21 10:39:59;;;;;;;53.73;15.73;;;0.00;99.90;;;;;;4974059;28;20205;-72
2023/01/21 10:42:50;;;;;;;50.27;14.33;;;0.10;99.90;;;;;;4973370;28;20452;-72
2023/01/21 10:45:34;;;;;;;49.50;16.07;;;0.00;99.90;;;;;;4973976;28;20431;-71
2023/01/21 10:48:38;;;;;;;48.73;14.33;;;-0.10;99.90;;;;;;4974076;28;20483;-71
2023/01/21 10:51:27;;;;;;;47.77;16.23;;;0.00;99.90;;;;;;4971308;28;20489;-72
2023/01/21 10:54:07;;;;;;;48.20;15.63;;;0.00;99.90;;;;;;4973638;28;20949;-71
2023/01/21 10:56:38;;;;;;;53.83;15.27;;;0.10;99.90;;;;;;4973392;28;20523;-73
2023/01/21 10:59:09;;;;;;;51.87;16.60;;;0.20;99.90;;;;;;4971499;28;20457;-68
2023/01/21 11:01:39;;;;;;;55.97;17.20;;;0.30;99.90;;;;;;4969837;28;20430;-71
2023/01/21 11:04:18;;;;;;;52.10;17.60;;;0.40;99.90;;;;;;4970908;28;20211;-75
2023/01/21 11:06:48;;;;;;;56.70;17.33;;;0.50;99.90;;;;;;4968225;28;20479;-73
2023/01/21 11:09:14;;;;;;;53.43;18.13;;;0.30;99.90;;;;;;4973366;28;20427;-71
2023/01/21 11:11:41;;;;;;;59.10;17.63;;;0.40;99.90;;;;;;4972471;28;20440;-72
2023/01/21 11:14:08;;;;;;;64.77;18.00;;;0.30;99.90;;;;;;4971746;28;20239;-72
2023/01/21 11:16:48;;;;;;;63.53;17.53;;;0.30;99.90;;;;;;4973145;28;20434;-72
2023/01/21 11:19:21;;;;;;;55.77;16.30;;;0.00;99.90;;;;;;4973345;28;20429;-72
2023/01/21 11:21:59;;;;;;;57.90;16.30;;;0.00;99.90;;;;;;4966568;28;20457;-72
2023/01/21 11:24:26;;;;;;;53.60;14.83;;;0.10;99.90;;;;;;4972985;28;20429;-73
2023/01/21 11:27:00;;;;;;;55.23;14.13;;;0.00;99.90;;;;;;4973038;28;20516;-72
2023/01/21 11:29:36;;;;;;;49.90;13.90;;;0.00;99.90;;;;;;4971946;28;20432;-72
2023/01/21 11:32:13;;;;;;;51.97;14.57;;;0.00;99.90;;;;;;4968987;28;20500;-73
2023/01/21 11:34:47;;;;;;;55.67;16.23;;;0.00;99.90;;;;;;4972823;28;21053;-71
2023/01/21 11:37:25;;;;;;;53.83;14.33;;;0.00;99.90;;;;;;4987980;28;20460;-72
2023/01/21 11:39:53;;;;;;;52.23;14.03;;;0.10;99.90;;;;;;4981200;28;20444;-72
2023/01/21 11:42:19;;;;;;;56.20;14.50;;;0.30;99.90;;;;;;4972318;28;20457;-72
2023/01/21 11:45:00;;;;;;;55.30;13.60;;;0.30;99.90;;;;;;4972577;28;20481;-72
2023/01/21 11:47:36;;;;;;;55.13;14.07;;;0.40;99.90;;;;;;4971986;28;20217;-70
2023/01/21 11:50:16;;;;;;;51.33;12.47;;;0.40;99.90;;;;;;4972100;28;20493;-72
2023/01/21 11:52:42;;;;;;;54.23;14.40;;;0.40;99.90;;;;;;4971966;28;20451;-70
2023/01/21 11:55:18;;;;;;;56.37;13.77;;;0.50;99.90;;;;;;4972697;28;20466;-69
2023/01/21 11:57:49;;;;;;;54.93;14.80;;;0.50;99.90;;;;;;4964618;28;20827;-71
2023/01/21 12:00:23;;;;;;;52.03;13.27;;;0.50;99.90;;;;;;4972106;28;20442;-69
2023/01/21 12:02:58;;;;;;;54.90;12.57;;;0.60;99.90;;;;;;4965325;28;20531;-71
2023/01/21 12:05:33;;;;;;;57.73;14.67;;;0.50;99.90;;;;;;4971985;28;20858;-71
2023/01/21 12:08:01;;;;;;;58.87;13.87;;;0.40;99.90;;;;;;4972405;28;20453;-71
2023/01/21 12:10:31;;;;;;;60.77;15.77;;;0.50;99.90;;;;;;4971908;28;20479;-71
2023/01/21 12:13:29;;;;;;;57.70;14.23;;;0.50;99.90;;;;;;4966860;28;20426;-72
2023/01/21 12:16:13;;;;;;;55.77;16.17;;;0.40;99.90;;;;;;4972977;28;20432;-71
2023/01/21 12:19:05;;;;;;;56.50;14.67;;;0.40;99.90;;;;;;4972980;28;20396;-71
2023/01/21 12:21:46;;;;;;;56.37;14.00;;;0.30;99.90;;;;;;4972429;28;20508;-70
2023/01/21 12:24:33;;;;;;;52.90;14.60;;;0.30;99.90;;;;;;4972574;28;20406;-71
2023/01/21 12:27:36;;;;;;;55.97;13.67;;;0.30;99.90;;;;;;4968597;28;20438;-70
2023/01/21 12:30:19;;;;;;;53.93;13.87;;;0.30;99.90;;;;;;4971485;28;21025;-72
2023/01/21 12:32:53;;;;;;;60.23;13.83;;;0.30;99.90;;;;;;4963639;28;20456;-72
2023/01/21 12:35:31;;;;;;;50.90;12.30;;;0.30;99.90;;;;;;4971222;28;20470;-72
2023/01/21 12:38:16;;;;;;;55.20;14.80;;;0.30;99.90;;;;;;4971672;28;20453;-70
2023/01/21 12:41:04;;;;;;;57.73;15.10;;;0.40;99.90;;;;;;4986245;28;20512;-72
2023/01/21 12:43:46;;;;;;;56.33;14.37;;;0.40;99.90;;;;;;4971225;28;20964;-72
2023/01/21 12:46:20;;;;;;;53.83;14.13;;;0.50;99.90;;;;;;4973237;28;20545;-71
2023/01/21 12:48:59;;;;;;;55.50;15.03;;;0.40;99.90;;;;;;4967716;28;20505;-71
2023/01/21 12:51:31;;;;;;;51.43;13.97;;;0.40;99.90;;;;;;4971129;28;20467;-71
2023/01/21 12:54:18;;;;;;;56.70;14.27;;;0.50;99.90;;;;;;4971025;28;21091;-72
2023/01/21 12:56:56;;;;;;;64.80;15.83;;;0.40;99.90;;;;;;4971466;28;20451;-71
2023/01/21 12:59:36;;;;;;;56.80;14.53;;;0.40;99.90;;;;;;4971314;28;20464;-71
2023/01/21 13:02:19;;;;;;;57.73;15.20;;;0.40;99.90;;;;;;4972555;28;20467;-72
2023/01/21 13:04:57;;;;;;;66.77;14.17;;;0.40;99.90;;;;;;4963568;28;20456;-72
2023/01/21 13:07:31;;;;;;;57.50;14.50;;;0.50;99.90;;;;;;4971409;28;20451;-71
2023/01/21 13:10:15;;;;;;;62.20;16.17;;;0.50;99.90;;;;;;4986866;28;20507;-72
2023/01/21 13:12:45;;;;;;;39.40;13.60;;;0.50;99.90;;;;;;4970916;28;20792;-72
2023/01/21 13:15:18;;;;;;;42.90;14.73;;;0.50;99.90;;;;;;4971367;28;20473;-72
2023/01/21 13:17:49;;;;;;;36.63;13.30;;;0.50;99.90;;;;;;4971051;28;20458;-72
2023/01/21 13:20:19;;;;;;;41.10;13.00;;;0.40;99.90;;;;;;4971143;28;20843;-72
2023/01/21 13:22:59;;;;;;;48.37;15.37;;;0.40;99.90;;;;;;4971005;28;20505;-71
2023/01/21 13:25:38;;;;;;;43.00;12.90;;;0.40;99.90;;;;;;4970816;28;20473;-71
2023/01/21 13:28:22;;;;;;;49.10;14.33;;;0.40;99.90;;;;;;4971185;28;20492;-71
2023/01/21 13:30:51;;;;;;;44.37;14.40;;;0.40;99.90;;;;;;4970355;28;20900;-70
2023/01/21 13:33:50;;;;;;;46.10;15.13;;;0.30;99.90;;;;;;4970705;28;21022;-71
2023/01/21 13:36:33;;;;;;;46.13;14.60;;;0.30;99.90;;;;;;4970581;28;20926;-70
2023/01/21 13:39:04;;;;;;;40.60;13.67;;;0.30;99.90;;;;;;4970997;28;20498;-72
2023/01/21 13:41:43;;;;;;;44.47;13.30;;;0.30;99.90;;;;;;4970402;28;20496;-71
2023/01/21 13:44:27;;;;;;;44.20;13.93;;;0.30;99.90;;;;;;4970764;28;20457;-72
2023/01/21 13:47:17;;;;;;;41.60;13.30;;;0.30;99.90;;;;;;4969303;28;20864;-70
2023/01/21 13:50:06;;;;;;;41.13;12.20;;;0.20;99.90;;;;;;4970178;28;20495;-72
2023/01/21 13:52:48;;;;;;;38.70;13.53;;;0.30;99.90;;;;;;4962721;28;20475;-72
2023/01/21 13:56:00;;;;;;;39.93;13.10;;;0.30;99.90;;;;;;4967878;28;20462;-72
2023/01/21 13:58:49;;;;;;;41.33;14.13;;;0.30;99.90;;;;;;4967511;28;20472;-71
2023/01/21 14:01:58;;;;;;;39.73;13.60;;;0.40;99.90;;;;;;4970450;28;20467;-71
2023/01/21 14:04:34;;;;;;;42.40;12.60;;;0.40;99.90;;;;;;4942192;28;20463;-71
2023/01/21 14:07:04;;;;;;;43.03;12.00;;;0.50;99.90;;;;;;4971759;28;20830;-70
2023/01/21 14:09:36;;;;;;;38.03;11.13;;;0.40;99.90;;;;;;4973306;28;20499;-71
2023/01/21 14:12:15;;;;;;;35.37;11.50;;;0.50;99.90;;;;;;4973357;28;20469;-71
2023/01/21 14:14:54;;;;;;;40.80;13.37;;;0.50;99.90;;;;;;4974276;28;20462;-71
2023/01/21 14:17:30;;;;;;;41.90;12.80;;;0.40;99.90;;;;;;4977472;28;20554;-71
2023/01/21 14:20:11;;;;;;;40.43;12.50;;;0.30;99.90;;;;;;4968411;28;20474;-69